createdAt,value
2018-02-05T00:01:12.947Z,-0.90
2018-02-05T00:03:40.549Z,-0.90
2018-02-05T00:06:08.186Z,-0.90
2018-02-05T00:08:35.819Z,-0.90
2018-02-05T00:11:04.191Z,-0.90
2018-02-05T00:13:31.785Z,-0.90
2018-02-05T00:16:00.137Z,-0.90
2018-02-05T00:18:27.734Z,-1.00
2018-02-05T00:20:55.328Z,-1.00
2018-02-05T00:23:22.922Z,-0.90
2018-02-05T00:25:50.514Z,-0.90
2018-02-05T00:28:18.874Z,-1.00
2018-02-05T00:30:46.476Z,-1.00
2018-02-05T00:33:14.074Z,-1.00
2018-02-05T00:35:41.733Z,-1.00
2018-02-05T00:38:09.346Z,-1.00
2018-02-05T00:40:36.950Z,-1.00
2018-02-05T00:43:04.582Z,-1.00
2018-02-05T00:45:32.947Z,-1.00
2018-02-05T00:48:00.555Z,-1.00
2018-02-05T00:50:28.155Z,-1.00
2018-02-05T00:52:55.754Z,-1.00
2018-02-05T00:55:23.360Z,-1.00
2018-02-05T00:57:50.966Z,-1.00
2018-02-05T01:00:18.580Z,-1.00
2018-02-05T01:02:46.174Z,-1.00
2018-02-05T01:05:13.779Z,-1.00
2018-02-05T01:07:41.378Z,-1.00
2018-02-05T01:10:08.974Z,-1.00
2018-02-05T01:12:36.574Z,-0.90
2018-02-05T01:15:04.196Z,-0.90
2018-02-05T01:17:31.799Z,-0.90
2018-02-05T01:19:59.398Z,-0.90
2018-02-05T01:22:27.001Z,-0.90
2018-02-05T01:24:54.607Z,-0.90
2018-02-05T01:27:22.975Z,-0.90
2018-02-05T01:29:50.610Z,-0.90
2018-02-05T01:32:18.203Z,-0.90
2018-02-05T01:34:45.799Z,-0.90
2018-02-05T01:37:14.157Z,-0.90
2018-02-05T01:39:41.754Z,-0.90
2018-02-05T01:42:09.355Z,-0.80
2018-02-05T01:44:36.950Z,-0.80
2018-02-05T01:47:04.542Z,-0.90
2018-02-05T01:49:32.904Z,-0.90
2018-02-05T01:52:00.666Z,-0.90
2018-02-05T01:54:28.315Z,-0.80
2018-02-05T01:56:55.914Z,-0.80
2018-02-05T01:59:26.218Z,-0.90
2018-02-05T02:01:53.818Z,-0.90
2018-02-05T02:04:21.410Z,-0.90
2018-02-05T02:06:49.034Z,-0.90
2018-02-05T02:09:17.445Z,-0.90
2018-02-05T02:11:45.038Z,-0.90
2018-02-05T02:14:12.674Z,-0.90
2018-02-05T02:16:40.271Z,-0.90
2018-02-05T02:19:07.870Z,-0.90
2018-02-05T02:21:35.467Z,-0.90
2018-02-05T02:24:03.071Z,-0.90
2018-02-05T02:26:30.690Z,-0.90
2018-02-05T02:28:58.286Z,-0.90
2018-02-05T02:31:25.914Z,-1.00
2018-02-05T02:33:54.287Z,-1.00
2018-02-05T02:36:22.644Z,-1.10
2018-02-05T02:38:50.258Z,-1.10
2018-02-05T02:41:17.862Z,-1.10
2018-02-05T02:43:45.453Z,-1.10
2018-02-05T02:46:13.098Z,-1.10
2018-02-05T02:48:40.695Z,-1.10
2018-02-05T02:51:09.098Z,-1.10
2018-02-05T02:53:36.690Z,-1.10
2018-02-05T02:56:04.303Z,-1.20
2018-02-05T02:58:32.666Z,-1.20
2018-02-05T03:01:00.263Z,-1.20
2018-02-05T03:03:28.632Z,-1.20
2018-02-05T03:05:56.223Z,-1.30
2018-02-05T03:08:23.866Z,-1.20
2018-02-05T03:10:52.266Z,-1.30
2018-02-05T03:13:20.626Z,-1.30
2018-02-05T03:15:48.221Z,-1.30
2018-02-05T03:18:15.815Z,-1.30
2018-02-05T03:20:43.423Z,-1.30
2018-02-05T03:23:11.038Z,-1.30
2018-02-05T03:25:38.639Z,-1.30
2018-02-05T03:28:06.269Z,-1.30
2018-02-05T03:30:33.871Z,-1.30
2018-02-05T03:33:01.467Z,-1.30
2018-02-05T03:35:29.825Z,-1.30
2018-02-05T03:37:57.426Z,-1.30
2018-02-05T03:40:25.030Z,-1.30
2018-02-05T03:42:52.618Z,-1.30
2018-02-05T03:45:20.323Z,-1.40
2018-02-05T03:47:47.914Z,-1.40
2018-02-05T03:50:15.558Z,-1.40
2018-02-05T03:52:43.155Z,-1.40
2018-02-05T03:55:10.756Z,-1.40
2018-02-05T03:57:38.396Z,-1.40
2018-02-05T04:00:06.035Z,-1.40
2018-02-05T04:02:33.622Z,-1.40
2018-02-05T04:05:01.219Z,-1.50
2018-02-05T04:07:29.584Z,-1.50
2018-02-05T04:09:57.186Z,-1.60
2018-02-05T04:12:24.902Z,-1.50
2018-02-05T04:14:52.497Z,-1.50
2018-02-05T04:17:20.887Z,-1.50
2018-02-05T04:19:49.242Z,-1.50
2018-02-05T04:22:16.874Z,-1.50
2018-02-05T04:24:44.510Z,-1.60
2018-02-05T04:27:12.870Z,-1.80
2018-02-05T04:29:40.514Z,-1.80
2018-02-05T04:32:08.118Z,-1.80
2018-02-05T04:34:36.483Z,-2.00
2018-02-05T04:37:04.082Z,-2.00
2018-02-05T04:39:31.679Z,-2.00
2018-02-05T04:41:59.271Z,-2.10
2018-02-05T04:44:26.866Z,-2.10
2018-02-05T04:46:55.225Z,-2.30
2018-02-05T04:49:22.819Z,-2.30
2018-02-05T04:51:50.419Z,-2.30
2018-02-05T04:54:18.018Z,-2.40
2018-02-05T04:56:45.655Z,-2.40
2018-02-05T04:59:13.242Z,-2.40
2018-02-05T05:01:40.838Z,-2.40
2018-02-05T05:04:09.202Z,-2.30
2018-02-05T05:06:36.839Z,-2.30
2018-02-05T05:09:04.482Z,-2.30
2018-02-05T05:11:32.078Z,-2.20
2018-02-05T05:13:59.670Z,-2.20
2018-02-05T05:16:28.027Z,-2.10
2018-02-05T05:18:55.623Z,-2.10
2018-02-05T05:21:24.036Z,-1.90
2018-02-05T05:23:51.681Z,-2.00
2018-02-05T05:26:20.034Z,-2.00
2018-02-05T05:28:47.634Z,-2.00
2018-02-05T05:31:15.226Z,-2.00
2018-02-05T05:33:42.828Z,-2.00
2018-02-05T05:36:10.466Z,-2.00
2018-02-05T05:38:38.106Z,-2.00
2018-02-05T05:41:05.754Z,-2.00
2018-02-05T05:43:34.115Z,-2.10
2018-02-05T05:46:02.481Z,-2.10
2018-02-05T05:48:30.085Z,-2.10
2018-02-05T05:50:57.678Z,-2.10
2018-02-05T05:53:25.282Z,-2.10
2018-02-05T05:55:52.882Z,-2.10
2018-02-05T05:58:20.471Z,-2.10
2018-02-05T06:00:48.062Z,-2.10
2018-02-05T06:03:15.662Z,-2.00
2018-02-05T06:05:44.022Z,-2.10
2018-02-05T06:08:11.624Z,-2.10
2018-02-05T06:10:39.223Z,-2.00
2018-02-05T06:13:06.872Z,-2.00
2018-02-05T06:15:34.485Z,-2.00
2018-02-05T06:18:02.082Z,-2.10
2018-02-05T06:20:29.678Z,-2.10
2018-02-05T06:22:57.280Z,-2.10
2018-02-05T06:25:24.882Z,-2.10
2018-02-05T06:27:52.478Z,-2.20
2018-02-05T06:30:20.075Z,-2.20
2018-02-05T06:32:47.670Z,-2.20
2018-02-05T06:35:16.043Z,-2.20
2018-02-05T06:37:44.410Z,-2.20
2018-02-05T06:40:12.002Z,-2.20
2018-02-05T06:42:39.605Z,-2.20
2018-02-05T06:45:07.203Z,-2.20
2018-02-05T06:47:34.803Z,-2.20
2018-02-05T06:50:02.406Z,-2.20
2018-02-05T06:52:41.668Z,-2.30
2018-02-05T06:55:21.141Z,-2.30
2018-02-05T06:57:48.731Z,-2.30
2018-02-05T07:00:16.681Z,-2.40
2018-02-05T07:02:44.291Z,-2.40
2018-02-05T07:05:11.896Z,-2.40
2018-02-05T07:07:40.264Z,-2.30
2018-02-05T07:10:08.650Z,-2.30
2018-02-05T07:12:37.006Z,-2.30
2018-02-05T07:15:04.607Z,-2.30
2018-02-05T07:17:32.968Z,-2.20
2018-02-05T07:20:00.590Z,-2.20
2018-02-05T07:22:28.181Z,-2.20
2018-02-05T07:24:55.774Z,-2.10
2018-02-05T07:27:24.134Z,-2.10
2018-02-05T07:29:51.736Z,-2.20
2018-02-05T07:32:19.326Z,-2.10
2018-02-05T07:34:46.944Z,-2.00
2018-02-05T07:37:15.313Z,-1.70
2018-02-05T07:39:42.917Z,-1.70
2018-02-05T07:42:10.526Z,-1.60
2018-02-05T07:44:38.148Z,-1.50
2018-02-05T07:47:05.748Z,-1.50
2018-02-05T07:49:33.342Z,-1.50
2018-02-05T07:52:00.936Z,-1.40
2018-02-05T07:54:29.295Z,-1.60
2018-02-05T07:56:56.895Z,-1.60
2018-02-05T07:59:24.524Z,-1.60
2018-02-05T08:01:52.190Z,-1.50
2018-02-05T08:04:20.574Z,-1.40
2018-02-05T08:06:48.178Z,-1.50
2018-02-05T08:09:16.711Z,-1.50
2018-02-05T08:11:45.111Z,-1.30
2018-02-05T08:14:12.714Z,-1.30
2018-02-05T08:16:40.315Z,-1.10
2018-02-05T08:19:07.915Z,-0.90
2018-02-05T08:21:36.275Z,-0.80
2018-02-05T08:24:03.867Z,-0.80
2018-02-05T08:26:32.228Z,-0.50
2018-02-05T08:28:59.824Z,-0.50
2018-02-05T08:31:27.427Z,-0.30
2018-02-05T08:33:55.027Z,-0.40
2018-02-05T08:36:22.626Z,-0.50
2018-02-05T08:38:50.282Z,-0.60
2018-02-05T08:41:18.638Z,-0.20
2018-02-05T08:43:46.234Z,-0.20
2018-02-05T08:46:13.871Z,-0.30
2018-02-05T08:48:41.461Z,-0.20
2018-02-05T08:51:09.827Z,-0.50
2018-02-05T08:53:38.206Z,-0.80
2018-02-05T08:56:05.810Z,-0.80
2018-02-05T08:58:33.414Z,-1.00
2018-02-05T09:01:01.015Z,-1.00
2018-02-05T09:03:29.378Z,-1.10
2018-02-05T09:05:56.987Z,-1.10
2018-02-05T09:08:24.591Z,-1.10
2018-02-05T09:10:52.192Z,-1.00
2018-02-05T09:13:20.783Z,-0.90
2018-02-05T09:15:49.147Z,-0.60
2018-02-05T09:18:16.752Z,-0.60
2018-02-05T09:20:44.395Z,-0.30
2018-02-05T09:23:12.767Z,0.20
2018-02-05T09:25:41.127Z,0.50
2018-02-05T09:28:08.723Z,0.50
2018-02-05T09:30:37.083Z,1.10
2018-02-05T09:33:04.695Z,1.10
2018-02-05T09:35:32.282Z,1.40
2018-02-05T09:37:59.865Z,1.20
2018-02-05T09:40:27.471Z,1.40
2018-02-05T09:42:55.830Z,1.50
2018-02-05T09:45:23.418Z,1.50
2018-02-05T09:47:51.774Z,2.00
2018-02-05T09:50:19.371Z,1.90
2018-02-05T09:52:46.976Z,1.60
2018-02-05T09:55:14.566Z,1.20
2018-02-05T09:57:42.214Z,0.90
2018-02-05T10:00:09.803Z,1.30
2018-02-05T10:02:37.395Z,1.30
2018-02-05T10:05:04.987Z,1.50
2018-02-05T10:07:32.581Z,1.80
2018-02-05T10:10:00.170Z,2.00
2018-02-05T10:12:27.791Z,2.00
2018-02-05T10:14:55.387Z,1.50
2018-02-05T10:17:24.517Z,1.30
2018-02-05T10:19:52.874Z,0.90
2018-02-05T10:22:21.455Z,0.90
2018-02-05T10:24:53.002Z,0.90
2018-02-05T10:27:30.586Z,0.90
2018-02-05T10:29:58.715Z,0.90
2018-02-05T10:32:26.304Z,0.90
2018-02-05T10:34:53.923Z,1.00
2018-02-05T10:37:21.544Z,0.90
2018-02-05T10:39:49.139Z,0.90
2018-02-05T10:42:16.735Z,0.80
2018-02-05T10:44:45.122Z,0.40
2018-02-05T10:47:13.471Z,0.40
2018-02-05T10:49:41.091Z,0.40
2018-02-05T10:52:08.691Z,0.60
2018-02-05T10:54:36.277Z,0.80
2018-02-05T10:57:04.638Z,1.20
2018-02-05T10:59:32.227Z,1.20
2018-02-05T11:02:00.586Z,1.20
2018-02-05T11:04:30.194Z,1.10
2018-02-05T11:06:57.790Z,1.10
2018-02-05T11:09:26.197Z,0.50
2018-02-05T11:11:53.803Z,0.50
2018-02-05T11:14:21.438Z,0.50
2018-02-05T11:16:49.022Z,0.30
2018-02-05T11:19:16.618Z,0.20
2018-02-05T11:21:44.211Z,0.10
2018-02-05T11:24:12.640Z,0.10
2018-02-05T11:26:40.230Z,0.10
2018-02-05T11:29:07.824Z,0.30
2018-02-05T11:31:36.181Z,0.40
2018-02-05T11:34:03.812Z,0.40
2018-02-05T11:36:31.507Z,0.30
2018-02-05T11:39:00.018Z,0.40
2018-02-05T11:41:27.644Z,0.50
2018-02-05T11:43:55.243Z,0.40
2018-02-05T11:46:23.606Z,0.10
2018-02-05T11:48:51.232Z,0.10
2018-02-05T11:51:18.843Z,0.10
2018-02-05T11:53:46.446Z,0.30
2018-02-05T11:56:14.072Z,0.30
2018-02-05T11:58:41.679Z,0.20
2018-02-05T12:01:09.284Z,0.10
2018-02-05T12:03:36.916Z,0.20
2018-02-05T12:06:06.580Z,0.20
2018-02-05T12:08:34.198Z,0.10
2018-02-05T12:11:01.807Z,0.10
2018-02-05T12:13:29.587Z,0.10
2018-02-05T12:15:57.182Z,0.00
2018-02-05T12:18:24.814Z,-0.10
2018-02-05T12:20:52.412Z,0.00
2018-02-05T12:23:20.012Z,0.10
2018-02-05T12:25:47.599Z,0.20
2018-02-05T12:28:15.222Z,0.20
2018-02-05T12:30:42.823Z,0.20
2018-02-05T12:33:10.425Z,0.00
2018-02-05T12:35:38.841Z,0.00
2018-02-05T12:38:06.455Z,0.00
2018-02-05T12:40:34.074Z,0.00
2018-02-05T12:43:01.679Z,0.10
2018-02-05T12:45:29.286Z,0.10
2018-02-05T12:47:56.883Z,0.20
2018-02-05T12:50:24.474Z,0.30
2018-02-05T12:52:52.109Z,0.30
2018-02-05T12:55:19.714Z,0.20
2018-02-05T12:57:48.121Z,0.30
2018-02-05T13:00:36.408Z,0.30
2018-02-05T13:03:04.962Z,0.10
2018-02-05T13:05:32.579Z,0.10
2018-02-05T13:08:00.179Z,0.10
2018-02-05T13:10:27.771Z,0.10
2018-02-05T13:12:55.366Z,0.30
2018-02-05T13:15:22.963Z,0.40
2018-02-05T13:17:51.331Z,0.40
2018-02-05T13:20:18.942Z,0.40
2018-02-05T13:22:46.533Z,0.50
2018-02-05T13:25:14.200Z,0.60
2018-02-05T13:27:41.796Z,0.60
2018-02-05T13:30:10.159Z,0.30
2018-02-05T13:32:37.802Z,0.30
2018-02-05T13:35:05.394Z,0.20
2018-02-05T13:37:32.986Z,0.20
2018-02-05T13:40:01.339Z,0.00
2018-02-05T13:42:28.943Z,0.00
2018-02-05T13:44:56.542Z,0.00
2018-02-05T13:47:24.171Z,0.00
2018-02-05T13:49:51.779Z,0.00
2018-02-05T13:52:19.374Z,-0.10
2018-02-05T13:54:46.995Z,0.00
2018-02-05T13:57:14.628Z,0.00
2018-02-05T13:59:42.232Z,0.00
2018-02-05T14:02:09.831Z,-0.10
2018-02-05T14:04:37.436Z,-0.10
2018-02-05T14:07:05.061Z,-0.10
2018-02-05T14:09:33.628Z,-0.10
2018-02-05T14:12:02.181Z,-0.30
2018-02-05T14:14:29.818Z,-0.30
2018-02-05T14:16:58.195Z,-0.40
2018-02-05T14:19:26.591Z,-0.30
2018-02-05T14:21:54.965Z,-0.30
2018-02-05T14:24:22.571Z,-0.30
2018-02-05T14:26:50.237Z,-0.20
2018-02-05T14:29:17.835Z,-0.20
2018-02-05T14:31:45.452Z,-0.20
2018-02-05T14:34:13.074Z,-0.30
2018-02-05T14:36:40.690Z,-0.30
2018-02-05T14:39:08.300Z,-0.40
2018-02-05T14:41:35.923Z,-0.40
2018-02-05T14:44:03.587Z,-0.40
2018-02-05T14:46:31.187Z,-0.30
2018-02-05T14:48:59.685Z,-0.40
2018-02-05T14:51:27.312Z,-0.40
2018-02-05T14:53:54.923Z,-0.40
2018-02-05T14:56:22.523Z,-0.50
2018-02-05T14:58:50.145Z,-0.70
2018-02-05T15:01:18.807Z,-0.70
2018-02-05T15:03:46.411Z,-0.80
2018-02-05T15:06:14.015Z,-0.80
2018-02-05T15:08:41.617Z,-0.90
2018-02-05T15:11:09.220Z,-1.00
2018-02-05T15:13:37.579Z,-1.10
2018-02-05T15:16:05.175Z,-1.20
2018-02-05T15:18:33.538Z,-1.20
2018-02-05T15:21:01.141Z,-1.20
2018-02-05T15:23:28.799Z,-1.20
2018-02-05T15:25:56.404Z,-1.20
2018-02-05T15:28:23.999Z,-1.20
2018-02-05T15:30:51.616Z,-1.20
2018-02-05T15:33:19.222Z,-1.20
2018-02-05T15:35:46.830Z,-1.20
2018-02-05T15:38:14.449Z,-1.20
2018-02-05T15:40:42.052Z,-1.20
2018-02-05T15:43:09.646Z,-1.20
2018-02-05T15:45:37.245Z,-1.20
2018-02-05T15:48:04.868Z,-1.20
2018-02-05T15:50:32.460Z,-1.30
2018-02-05T15:53:00.083Z,-1.30
2018-02-05T15:55:27.687Z,-1.30
2018-02-05T15:57:55.305Z,-1.30
2018-02-05T16:00:22.916Z,-1.30
2018-02-05T16:02:50.519Z,-1.40
2018-02-05T16:05:18.889Z,-1.50
2018-02-05T16:07:46.492Z,-1.50
2018-02-05T16:10:14.102Z,-1.50
2018-02-05T16:12:41.706Z,-1.60
2018-02-05T16:15:09.311Z,-1.60
2018-02-05T16:17:36.921Z,-1.60
2018-02-05T16:20:04.528Z,-1.60
2018-02-05T16:22:32.127Z,-1.60
2018-02-05T16:24:59.728Z,-1.60
2018-02-05T16:27:28.106Z,-1.60
2018-02-05T16:29:56.491Z,-1.70
2018-02-05T16:32:24.877Z,-1.70
2018-02-05T16:34:52.488Z,-1.70
2018-02-05T16:37:20.081Z,-1.70
2018-02-05T16:39:47.736Z,-1.70
2018-02-05T16:42:15.354Z,-1.80
2018-02-05T16:44:42.965Z,-1.90
2018-02-05T16:47:10.606Z,-1.90
2018-02-05T16:49:38.220Z,-1.80
2018-02-05T16:52:06.602Z,-1.80
2018-02-05T16:54:34.967Z,-1.80
2018-02-05T16:57:02.567Z,-1.80
2018-02-05T16:59:31.024Z,-1.80
2018-02-05T17:01:58.640Z,-1.80
2018-02-05T17:04:26.283Z,-1.70
2018-02-05T17:06:54.657Z,-1.80
2018-02-05T17:09:23.024Z,-1.80
2018-02-05T17:11:50.724Z,-1.80
2018-02-05T17:14:18.988Z,-1.80
2018-02-05T17:16:47.373Z,-1.80
2018-02-05T17:19:14.976Z,-1.80
2018-02-05T17:21:42.584Z,-1.80
2018-02-05T17:24:10.239Z,-1.80
2018-02-05T17:26:37.892Z,-1.90
2018-02-05T17:29:05.510Z,-1.90
2018-02-05T17:31:33.119Z,-2.00
2018-02-05T17:34:00.731Z,-2.00
2018-02-05T17:36:29.103Z,-2.20
2018-02-05T17:38:56.730Z,-2.20
2018-02-05T17:41:24.347Z,-2.20
2018-02-05T17:43:52.757Z,-2.30
2018-02-05T17:46:20.380Z,-2.30
2018-02-05T17:48:48.805Z,-2.40
2018-02-05T17:51:16.408Z,-2.40
2018-02-05T17:53:44.020Z,-2.30
2018-02-05T17:56:11.641Z,-2.30
2018-02-05T17:58:39.253Z,-2.40
2018-02-05T18:01:06.862Z,-2.40
2018-02-05T18:03:34.481Z,-2.50
2018-02-05T18:06:02.145Z,-2.50
2018-02-05T18:08:29.752Z,-2.60
2018-02-05T18:10:57.431Z,-2.60
2018-02-05T18:13:25.053Z,-2.70
2018-02-05T18:15:52.662Z,-2.70
2018-02-05T18:18:20.279Z,-2.70
2018-02-05T18:20:47.908Z,-2.70
2018-02-05T18:23:15.514Z,-2.70
2018-02-05T18:25:43.175Z,-2.90
2018-02-05T18:28:10.784Z,-2.90
2018-02-05T18:30:38.404Z,-2.90
2018-02-05T18:33:06.022Z,-3.00
2018-02-05T18:35:33.680Z,-3.00
2018-02-05T18:38:01.331Z,-3.00
2018-02-05T18:40:28.979Z,-3.00
2018-02-05T18:42:56.619Z,-3.00
2018-02-05T18:45:24.215Z,-2.90
2018-02-05T18:47:51.802Z,-2.90
2018-02-05T18:50:19.407Z,-2.90
2018-02-05T18:52:46.998Z,-2.90
2018-02-05T18:55:14.591Z,-2.90
2018-02-05T18:57:42.198Z,-3.00
2018-02-05T19:00:21.538Z,-3.00
2018-02-05T19:02:49.890Z,-3.00
2018-02-05T19:05:17.494Z,-3.00
2018-02-05T19:07:45.850Z,-2.90
2018-02-05T19:10:13.442Z,-2.90
2018-02-05T19:12:41.827Z,-2.90
2018-02-05T19:15:09.423Z,-2.90
2018-02-05T19:17:37.023Z,-2.90
2018-02-05T19:20:04.627Z,-2.90
2018-02-05T19:22:32.219Z,-2.90
2018-02-05T19:24:59.819Z,-2.80
2018-02-05T19:27:27.402Z,-2.80
2018-02-05T19:29:55.005Z,-2.80
2018-02-05T19:32:22.629Z,-2.90
2018-02-05T19:34:52.230Z,-2.90
2018-02-05T19:37:19.818Z,-3.00
2018-02-05T19:39:48.301Z,-3.00
2018-02-05T19:42:16.667Z,-3.00
2018-02-05T19:44:44.267Z,-3.10
2018-02-05T19:47:11.871Z,-3.00
2018-02-05T19:49:39.462Z,-3.10
2018-02-05T19:52:07.053Z,-3.10
2018-02-05T19:54:35.466Z,-3.20
2018-02-05T19:57:03.072Z,-3.20
2018-02-05T19:59:30.711Z,-3.30
2018-02-05T20:01:58.308Z,-3.30
2018-02-05T20:04:25.910Z,-3.40
2018-02-05T20:06:53.510Z,-3.50
2018-02-05T20:09:21.138Z,-3.50
2018-02-05T20:11:48.752Z,-3.60
2018-02-05T20:14:16.381Z,-3.70
2018-02-05T20:16:44.014Z,-3.80
2018-02-05T20:19:12.459Z,-3.80
2018-02-05T20:21:40.067Z,-3.90
2018-02-05T20:24:08.471Z,-4.00
2018-02-05T20:26:36.085Z,-4.00
2018-02-05T20:29:03.732Z,-4.00
2018-02-05T20:31:31.347Z,-4.00
2018-02-05T20:33:58.949Z,-4.00
2018-02-05T20:36:26.575Z,-4.10
2018-02-05T20:38:54.941Z,-4.20
2018-02-05T20:41:22.556Z,-4.20
2018-02-05T20:43:50.176Z,-4.30
2018-02-05T20:46:17.796Z,-4.30
2018-02-05T20:48:45.415Z,-4.30
2018-02-05T20:51:13.783Z,-4.40
2018-02-05T20:53:41.383Z,-4.40
2018-02-05T20:56:08.983Z,-4.40
2018-02-05T20:58:36.583Z,-4.50
2018-02-05T21:01:04.186Z,-4.50
2018-02-05T21:03:31.783Z,-4.60
2018-02-05T21:05:59.383Z,-4.60
2018-02-05T21:08:30.818Z,-4.70
2018-02-05T21:10:58.417Z,-4.80
2018-02-05T21:13:26.782Z,-4.90
2018-02-05T21:15:55.154Z,-5.00
2018-02-05T21:18:22.750Z,-5.00
2018-02-05T21:20:51.121Z,-5.00
2018-02-05T21:23:18.752Z,-5.00
2018-02-05T21:25:46.410Z,-5.00
2018-02-05T21:28:14.012Z,-5.00
2018-02-05T21:30:42.374Z,-5.10
2018-02-05T21:33:09.983Z,-5.10
2018-02-05T21:35:37.582Z,-5.20
2018-02-05T21:38:05.184Z,-5.30
2018-02-05T21:40:32.795Z,-5.30
2018-02-05T21:43:00.403Z,-5.30
2018-02-05T21:45:28.011Z,-5.30
2018-02-05T21:47:55.623Z,-5.30
2018-02-05T21:50:23.215Z,-5.40
2018-02-05T21:52:51.578Z,-5.40
2018-02-05T21:55:19.219Z,-5.40
2018-02-05T21:57:46.816Z,-5.40
2018-02-05T22:00:15.415Z,-5.50
2018-02-05T22:02:43.019Z,-5.50
2018-02-05T22:05:10.633Z,-5.60
2018-02-05T22:07:38.238Z,-5.60
2018-02-05T22:10:05.863Z,-5.60
2018-02-05T22:12:33.464Z,-5.60
2018-02-05T22:15:01.092Z,-5.60
2018-02-05T22:17:28.731Z,-5.60
2018-02-05T22:19:56.336Z,-5.70
2018-02-05T22:22:23.933Z,-5.80
2018-02-05T22:24:51.534Z,-5.80
2018-02-05T22:27:19.138Z,-5.90
2018-02-05T22:29:46.755Z,-5.90
2018-02-05T22:32:14.351Z,-6.00
2018-02-05T22:34:41.967Z,-6.00
2018-02-05T22:37:09.554Z,-6.10
2018-02-05T22:39:37.147Z,-6.20
2018-02-05T22:42:04.743Z,-6.20
2018-02-05T22:44:33.095Z,-6.30
2018-02-05T22:47:00.686Z,-6.30
2018-02-05T22:49:29.085Z,-6.30
2018-02-05T22:51:56.680Z,-6.30
2018-02-05T22:54:24.274Z,-6.30
2018-02-05T22:56:51.879Z,-6.30
2018-02-05T22:59:19.470Z,-6.30
2018-02-05T23:01:47.071Z,-6.20
2018-02-05T23:04:14.664Z,-6.20
2018-02-05T23:06:42.277Z,-6.20
2018-02-05T23:09:09.874Z,-6.30
2018-02-05T23:11:37.478Z,-6.30
2018-02-05T23:14:05.110Z,-6.30
2018-02-05T23:16:33.519Z,-6.40
2018-02-05T23:19:01.194Z,-6.40
2018-02-05T23:21:28.791Z,-6.50
2018-02-05T23:23:56.391Z,-6.50
2018-02-05T23:26:24.758Z,-6.60
2018-02-05T23:28:52.356Z,-6.60
2018-02-05T23:31:19.955Z,-6.60
2018-02-05T23:33:47.572Z,-6.60
2018-02-05T23:36:15.927Z,-6.60
2018-02-05T23:38:43.523Z,-6.60
2018-02-05T23:41:11.883Z,-6.70
2018-02-05T23:43:39.479Z,-6.70
2018-02-05T23:46:07.083Z,-6.90
2018-02-05T23:48:34.675Z,-6.80
2018-02-05T23:51:02.275Z,-6.70
2018-02-05T23:53:29.871Z,-6.60
2018-02-05T23:55:57.479Z,-6.60
2018-02-05T23:58:25.075Z,-6.60
